Time;durP1;ratioP1;P1;durP2;ratioP2;P2;SDS_P1;SDS_P2;PMS_P1;PMS_P2;Temp;Humidity;BMP_temperature;BMP_pressure;BME280_temperature;BME280_humidity;BME280_pressure;Samples;Min_cycle;Max_cycle;Signal;HPM_P1;HPM_P2
2023/12/22 00:00:39;;;;;;;4.32;3.97;;;4.60;99.90;;;;;;5060453;28;20211;-76
2023/12/22 00:03:06;;;;;;;4.45;4.15;;;4.50;99.90;;;;;;5058289;28;20290;-76
2023/12/22 00:05:33;;;;;;;4.20;3.75;;;4.40;99.90;;;;;;5058834;28;20224;-76
2023/12/22 00:08:02;;;;;;;4.05;3.75;;;4.40;99.90;;;;;;5060174;28;20221;-75
2023/12/22 00:10:29;;;;;;;4.22;3.88;;;4.40;99.90;;;;;;5057524;28;20206;-75
2023/12/22 00:12:56;;;;;;;3.80;3.50;;;4.50;99.90;;;;;;5056465;28;20222;-76
2023/12/22 00:15:23;;;;;;;4.65;3.70;;;4.50;99.90;;;;;;5060452;28;20205;-76
2023/12/22 00:17:50;;;;;;;4.65;4.25;;;4.50;99.90;;;;;;5058181;28;20229;-76
2023/12/22 00:20:18;;;;;;;4.63;4.22;;;4.50;99.90;;;;;;5059204;28;20233;-75
2023/12/22 00:22:45;;;;;;;4.18;3.88;;;4.40;99.90;;;;;;5057991;28;20239;-76
2023/12/22 00:25:14;;;;;;;4.05;3.45;;;4.40;99.90;;;;;;5058641;28;20202;-76
2023/12/22 00:27:41;;;;;;;3.80;3.60;;;4.50;99.90;;;;;;5059471;28;20222;-75
2023/12/22 00:30:09;;;;;;;4.38;3.90;;;4.50;99.90;;;;;;5060966;28;20206;-76
2023/12/22 00:32:36;;;;;;;4.80;4.35;;;4.50;99.90;;;;;;5058824;28;20210;-75
2023/12/22 00:35:04;;;;;;;4.90;4.40;;;4.50;99.90;;;;;;5059619;28;20739;-74
2023/12/22 00:37:31;;;;;;;4.40;4.10;;;4.50;99.90;;;;;;5059356;28;20222;-74
2023/12/22 00:39:58;;;;;;;4.30;4.00;;;4.60;99.90;;;;;;5059810;28;20202;-75
2023/12/22 00:42:27;;;;;;;4.70;4.30;;;4.60;99.90;;;;;;5059682;28;20197;-76
2023/12/22 00:44:54;;;;;;;4.03;3.67;;;4.70;99.90;;;;;;5057282;28;20206;-75
2023/12/22 00:47:21;;;;;;;4.00;3.70;;;4.70;99.90;;;;;;5060437;28;20621;-75
2023/12/22 00:49:48;;;;;;;4.03;3.70;;;4.70;99.90;;;;;;5058548;28;20222;-75
2023/12/22 00:52:15;;;;;;;3.65;3.45;;;4.80;99.90;;;;;;5061310;28;20584;-75
2023/12/22 00:54:42;;;;;;;4.50;3.83;;;4.90;99.90;;;;;;5059392;28;20226;-74
2023/12/22 00:57:09;;;;;;;3.88;3.60;;;4.90;99.90;;;;;;5060850;28;20229;-75
2023/12/22 00:59:38;;;;;;;3.80;3.50;;;4.80;99.90;;;;;;5061257;28;20226;-75
2023/12/22 01:02:05;;;;;;;3.85;3.47;;;4.80;99.90;;;;;;5063006;28;20206;-75
2023/12/22 01:04:32;;;;;;;3.97;3.67;;;4.80;99.90;;;;;;5064396;28;20727;-76
2023/12/22 01:06:59;;;;;;;4.95;4.55;;;4.80;99.90;;;;;;5065633;28;20673;-76
2023/12/22 01:09:26;;;;;;;4.45;4.05;;;4.70;99.90;;;;;;5058353;28;20214;-75
2023/12/22 01:11:53;;;;;;;4.22;3.90;;;4.50;99.90;;;;;;5056843;28;20217;-75
2023/12/22 01:14:20;;;;;;;4.18;3.88;;;4.40;99.90;;;;;;5055733;28;21233;-75
2023/12/22 01:16:49;;;;;;;4.38;4.03;;;4.40;99.90;;;;;;5060039;28;20210;-74
2023/12/22 01:19:16;;;;;;;3.80;3.55;;;4.40;99.90;;;;;;5056340;28;20225;-74
2023/12/22 01:21:43;;;;;;;3.60;3.40;;;4.50;99.90;;;;;;5058385;28;20232;-75
2023/12/22 01:24:10;;;;;;;4.70;4.25;;;4.50;99.90;;;;;;5055458;28;20233;-74
2023/12/22 01:26:37;;;;;;;4.32;3.92;;;4.50;99.90;;;;;;5056532;28;20230;-75
2023/12/22 01:29:04;;;;;;;4.30;3.90;;;4.40;99.90;;;;;;5055547;28;20218;-76
2023/12/22 01:31:31;;;;;;;4.30;4.00;;;4.40;99.90;;;;;;5056988;28;20297;-75
2023/12/22 01:34:00;;;;;;;4.60;4.05;;;4.40;99.90;;;;;;5055711;28;20228;-76
2023/12/22 01:36:27;;;;;;;4.43;4.13;;;4.50;99.90;;;;;;5055714;28;20222;-75
2023/12/22 01:38:54;;;;;;;4.75;4.30;;;4.50;99.90;;;;;;5056628;28;20218;-77
2023/12/22 01:41:21;;;;;;;4.82;4.43;;;4.40;99.90;;;;;;5055463;28;20198;-75
2023/12/22 01:43:48;;;;;;;4.03;3.72;;;4.40;99.90;;;;;;5058410;28;21364;-75
2023/12/22 01:46:15;;;;;;;3.65;3.45;;;4.50;99.90;;;;;;5053711;28;20222;-76
2023/12/22 01:48:43;;;;;;;3.45;3.25;;;4.50;99.90;;;;;;5056816;28;20230;-75
2023/12/22 01:51:11;;;;;;;4.10;3.70;;;4.60;99.90;;;;;;5056013;28;20595;-75
2023/12/22 01:53:39;;;;;;;4.18;3.78;;;4.70;99.90;;;;;;5057225;28;20692;-75
2023/12/22 01:56:06;;;;;;;3.53;3.22;;;4.70;99.90;;;;;;5055310;28;20194;-75
2023/12/22 01:58:37;;;;;;;3.63;3.33;;;4.80;99.90;;;;;;5056353;28;20227;-75
2023/12/22 02:01:04;;;;;;;4.53;3.92;;;4.80;99.90;;;;;;5055686;28;20210;-76
2023/12/22 02:03:32;;;;;;;3.80;3.60;;;4.80;99.90;;;;;;5057660;28;20230;-76
2023/12/22 02:05:59;;;;;;;3.78;3.53;;;4.80;99.90;;;;;;5052646;28;20218;-75
2023/12/22 02:08:29;;;;;;;3.95;3.65;;;4.90;99.90;;;;;;5057010;28;20228;-77
2023/12/22 02:10:56;;;;;;;3.60;3.30;;;4.90;99.90;;;;;;5054610;28;20202;-75
2023/12/22 02:13:24;;;;;;;3.63;3.33;;;4.90;99.90;;;;;;5057872;28;20594;-75
2023/12/22 02:15:56;;;;;;;3.63;3.42;;;4.90;99.90;;;;;;5058240;28;20206;-75
2023/12/22 02:18:31;;;;;;;4.05;3.58;;;5.00;99.90;;;;;;5059814;28;20238;-76
2023/12/22 02:20:58;;;;;;;3.20;3.00;;;5.00;99.90;;;;;;5056460;28;20198;-75
2023/12/22 02:23:26;;;;;;;3.90;3.60;;;5.00;99.90;;;;;;5054887;28;20221;-75
2023/12/22 02:26:08;;;;;;;3.33;3.13;;;5.00;99.90;;;;;;5053868;28;20762;-76
2023/12/22 02:28:36;;;;;;;3.45;3.25;;;4.90;99.90;;;;;;5056478;28;20238;-75
2023/12/22 02:31:10;;;;;;;3.42;3.20;;;5.00;99.90;;;;;;5058800;28;20620;-75
2023/12/22 02:33:42;;;;;;;3.85;3.55;;;5.00;99.90;;;;;;5055202;28;20227;-75
2023/12/22 02:36:10;;;;;;;3.20;3.00;;;5.00;99.90;;;;;;5055698;28;20209;-75
2023/12/22 02:38:40;;;;;;;4.10;3.80;;;5.00;99.90;;;;;;5057330;28;20222;-76
2023/12/22 02:41:08;;;;;;;4.47;4.13;;;5.00;99.90;;;;;;5053396;28;20198;-75
2023/12/22 02:43:35;;;;;;;4.05;3.75;;;4.80;99.90;;;;;;5055859;28;20235;-75
2023/12/22 02:46:02;;;;;;;3.55;3.25;;;4.80;99.90;;;;;;5055956;28;20225;-75
2023/12/22 02:48:29;;;;;;;5.97;5.38;;;4.80;99.90;;;;;;5057153;28;20224;-76
2023/12/22 02:50:56;;;;;;;5.15;4.75;;;4.60;99.90;;;;;;5059889;28;20206;-75
2023/12/22 02:53:23;;;;;;;5.65;5.15;;;4.40;99.90;;;;;;5058210;28;20219;-76
2023/12/22 02:55:52;;;;;;;4.93;4.35;;;4.20;99.90;;;;;;5055918;28;20724;-76
2023/12/22 02:58:19;;;;;;;5.28;4.78;;;4.20;99.90;;;;;;5058546;28;21414;-76
2023/12/22 03:00:46;;;;;;;5.03;4.63;;;4.20;99.90;;;;;;5057197;28;20210;-75
2023/12/22 03:03:14;;;;;;;4.93;4.53;;;4.20;99.90;;;;;;5058078;28;20305;-75
2023/12/22 03:05:41;;;;;;;5.00;4.60;;;4.30;99.90;;;;;;5058833;28;20280;-75
2023/12/22 03:08:08;;;;;;;5.00;4.60;;;4.30;99.90;;;;;;5059644;28;20230;-75
2023/12/22 03:10:35;;;;;;;4.20;3.83;;;4.30;99.90;;;;;;5057582;28;20214;-76
2023/12/22 03:13:03;;;;;;;4.90;4.50;;;4.30;99.90;;;;;;5057287;28;20734;-76
2023/12/22 03:15:30;;;;;;;4.35;4.03;;;4.30;99.90;;;;;;5059402;28;21705;-75
2023/12/22 03:17:57;;;;;;;4.68;4.28;;;4.30;99.90;;;;;;5059808;28;20241;-76
2023/12/22 03:20:24;;;;;;;5.32;4.85;;;4.40;99.90;;;;;;5058055;28;20205;-76
2023/12/22 03:22:51;;;;;;;4.97;4.63;;;4.40;99.90;;;;;;5061111;28;20233;-75
2023/12/22 03:25:19;;;;;;;4.22;3.92;;;4.40;99.90;;;;;;5060273;28;20204;-76
2023/12/22 03:27:46;;;;;;;4.43;4.13;;;4.40;99.90;;;;;;5059465;28;20325;-75
2023/12/22 03:30:15;;;;;;;4.53;4.22;;;4.40;99.90;;;;;;5062135;28;20793;-76
2023/12/22 03:32:42;;;;;;;4.20;3.90;;;4.40;99.90;;;;;;5061144;28;20195;-75
2023/12/22 03:35:09;;;;;;;4.43;4.13;;;4.40;99.90;;;;;;5061262;28;20207;-75
2023/12/22 03:37:36;;;;;;;4.03;3.72;;;4.50;99.90;;;;;;5060942;28;20737;-76
2023/12/22 03:40:03;;;;;;;4.45;4.15;;;4.60;99.90;;;;;;5062720;28;20202;-75
2023/12/22 03:42:30;;;;;;;5.13;4.72;;;4.60;99.90;;;;;;5057577;28;20256;-75
2023/12/22 03:44:57;;;;;;;4.70;4.30;;;4.70;99.90;;;;;;5062390;28;20210;-76
2023/12/22 03:47:26;;;;;;;4.53;4.13;;;4.70;99.90;;;;;;5057891;28;20655;-76
2023/12/22 03:49:53;;;;;;;5.05;4.55;;;4.60;99.90;;;;;;5059863;28;20202;-76
2023/12/22 03:52:20;;;;;;;4.15;3.85;;;4.60;99.90;;;;;;5059746;28;20202;-75
2023/12/22 03:54:47;;;;;;;4.03;3.72;;;4.60;99.90;;;;;;5059452;28;20232;-76
2023/12/22 03:57:14;;;;;;;3.97;3.67;;;4.60;99.90;;;;;;5061640;28;20229;-74
2023/12/22 03:59:43;;;;;;;4.20;3.78;;;4.70;99.90;;;;;;5059354;28;20226;-75
2023/12/22 04:02:10;;;;;;;4.03;3.67;;;4.70;99.90;;;;;;5059959;28;20202;-76
2023/12/22 04:04:40;;;;;;;3.60;3.40;;;4.80;99.90;;;;;;5057380;28;20987;-76
2023/12/22 04:07:07;;;;;;;3.50;3.30;;;4.80;99.90;;;;;;5061673;28;20226;-76
2023/12/22 04:09:34;;;;;;;3.60;3.30;;;4.80;99.90;;;;;;5059252;28;20681;-76
2023/12/22 04:12:02;;;;;;;3.70;3.50;;;4.90;99.90;;;;;;5060435;28;20198;-76
2023/12/22 04:14:30;;;;;;;3.50;3.30;;;4.90;99.90;;;;;;5056379;28;20723;-75
2023/12/22 04:16:57;;;;;;;4.05;3.67;;;5.00;99.90;;;;;;5060882;28;20217;-76
2023/12/22 04:19:24;;;;;;;4.13;3.83;;;5.00;99.90;;;;;;5059063;28;20233;-77
2023/12/22 04:21:52;;;;;;;4.43;4.05;;;5.00;99.90;;;;;;5058416;28;20217;-75
2023/12/22 04:24:19;;;;;;;4.65;4.25;;;4.90;99.90;;;;;;5059277;28;20810;-75
2023/12/22 04:26:46;;;;;;;4.38;4.00;;;4.80;99.90;;;;;;5060217;28;20230;-75
2023/12/22 04:29:13;;;;;;;4.45;3.83;;;4.70;99.90;;;;;;5059452;28;20222;-74
2023/12/22 04:31:40;;;;;;;3.88;3.58;;;4.70;99.90;;;;;;5061152;28;20765;-76
2023/12/22 04:34:07;;;;;;;3.75;3.53;;;4.70;99.90;;;;;;5057972;28;20222;-76
2023/12/22 04:36:36;;;;;;;3.15;2.95;;;4.80;99.90;;;;;;5057160;28;20673;-75
2023/12/22 04:39:04;;;;;;;3.40;3.20;;;4.90;99.90;;;;;;5060768;28;20229;-75
2023/12/22 04:41:31;;;;;;;3.45;3.17;;;5.00;99.90;;;;;;5058536;28;20209;-75
2023/12/22 04:44:02;;;;;;;4.53;4.22;;;5.00;99.90;;;;;;5057494;28;20217;-75
2023/12/22 04:46:29;;;;;;;3.92;3.63;;;5.00;99.90;;;;;;5057046;28;20287;-75
2023/12/22 04:48:57;;;;;;;4.32;4.03;;;4.90;99.90;;;;;;5059993;28;20229;-75
2023/12/22 04:51:24;;;;;;;4.50;4.10;;;4.80;99.90;;;;;;5060330;28;20202;-75
2023/12/22 04:53:51;;;;;;;4.22;3.92;;;4.80;99.90;;;;;;5059761;28;20218;-76
2023/12/22 04:56:20;;;;;;;4.82;4.43;;;4.80;99.90;;;;;;5058222;28;20214;-75
2023/12/22 04:58:47;;;;;;;4.45;4.15;;;4.70;99.90;;;;;;5059513;28;20217;-76
2023/12/22 05:01:14;;;;;;;4.70;4.40;;;4.70;99.90;;;;;;5053413;28;20233;-75
2023/12/22 05:03:41;;;;;;;5.47;5.00;;;4.70;99.90;;;;;;5058302;28;20218;-75
2023/12/22 05:06:09;;;;;;;4.78;4.38;;;4.70;99.90;;;;;;5055315;28;20207;-75
2023/12/22 05:08:36;;;;;;;3.83;3.47;;;4.80;99.90;;;;;;5055828;28;21214;-76
2023/12/22 05:11:03;;;;;;;4.10;3.83;;;4.80;99.90;;;;;;5060214;28;20700;-76
2023/12/22 05:13:31;;;;;;;4.50;4.20;;;4.90;99.90;;;;;;5058005;28;20234;-76
2023/12/22 05:15:58;;;;;;;4.07;3.78;;;5.00;99.90;;;;;;5058397;28;20201;-76
2023/12/22 05:18:26;;;;;;;4.75;4.45;;;5.10;99.90;;;;;;5059753;28;20222;-76
2023/12/22 05:20:54;;;;;;;4.20;3.90;;;5.10;99.90;;;;;;5057477;28;20198;-75
2023/12/22 05:23:21;;;;;;;4.32;4.03;;;5.10;99.90;;;;;;5058060;28;20214;-75
2023/12/22 05:25:48;;;;;;;3.92;3.67;;;5.20;99.90;;;;;;5058636;28;20210;-75
2023/12/22 05:28:15;;;;;;;3.85;3.55;;;5.20;99.90;;;;;;5054015;28;20723;-75
2023/12/22 05:30:43;;;;;;;4.97;4.57;;;5.20;99.90;;;;;;5059746;28;20205;-76
2023/12/22 05:33:10;;;;;;;3.95;3.65;;;5.30;99.90;;;;;;5060102;28;20230;-75
2023/12/22 05:35:37;;;;;;;3.92;3.63;;;5.30;99.90;;;;;;5058597;28;20205;-76
2023/12/22 05:38:05;;;;;;;3.63;3.42;;;5.30;99.90;;;;;;5057758;28;20754;-75
2023/12/22 05:40:33;;;;;;;3.55;3.35;;;5.40;99.90;;;;;;5058727;28;20202;-75
2023/12/22 05:43:01;;;;;;;4.00;3.70;;;5.50;99.90;;;;;;5057218;28;20260;-75
2023/12/22 05:45:28;;;;;;;4.30;4.00;;;5.50;99.90;;;;;;5056804;28;20240;-75
2023/12/22 05:47:57;;;;;;;3.75;3.55;;;5.50;99.90;;;;;;5058474;28;20307;-76
2023/12/22 05:50:24;;;;;;;3.55;3.35;;;5.50;99.90;;;;;;5058781;28;20194;-75
2023/12/22 05:52:51;;;;;;;3.30;3.10;;;5.60;99.90;;;;;;5058119;28;20236;-75
2023/12/22 05:55:18;;;;;;;3.40;3.20;;;5.60;99.90;;;;;;5059457;28;20202;-76
2023/12/22 05:57:45;;;;;;;3.10;2.90;;;5.70;99.90;;;;;;5059417;28;20615;-75
2023/12/22 06:00:15;;;;;;;3.65;3.00;;;5.80;99.90;;;;;;5056871;28;20202;-75
2023/12/22 06:02:42;;;;;;;2.70;2.60;;;5.90;99.90;;;;;;5056293;28;20198;-75
2023/12/22 06:05:10;;;;;;;3.50;3.30;;;6.10;99.90;;;;;;5057044;28;20201;-75
2023/12/22 06:07:37;;;;;;;3.67;3.47;;;6.10;99.90;;;;;;5052685;28;20741;-75
2023/12/22 06:10:05;;;;;;;4.18;3.88;;;6.00;99.90;;;;;;5058690;28;20199;-75
2023/12/22 06:12:32;;;;;;;5.28;4.88;;;5.90;99.90;;;;;;5054035;28;20231;-75
2023/12/22 06:14:59;;;;;;;5.05;4.65;;;5.60;99.90;;;;;;5056530;28;20214;-76
2023/12/22 06:17:26;;;;;;;4.90;4.50;;;5.30;99.90;;;;;;5054992;28;20218;-75
2023/12/22 06:19:53;;;;;;;4.28;3.97;;;5.20;99.90;;;;;;5059301;28;20209;-76
2023/12/22 06:22:22;;;;;;;4.22;3.92;;;5.20;99.90;;;;;;5059434;28;20201;-76
2023/12/22 06:24:50;;;;;;;4.15;3.78;;;5.30;99.90;;;;;;5060031;28;20218;-75
2023/12/22 06:27:17;;;;;;;4.10;3.78;;;5.30;99.90;;;;;;5058039;28;20229;-76
2023/12/22 06:29:44;;;;;;;5.28;4.68;;;5.40;99.90;;;;;;5056279;28;20662;-76
2023/12/22 06:32:12;;;;;;;5.60;5.03;;;5.30;99.90;;;;;;5058040;28;20203;-75
2023/12/22 06:34:39;;;;;;;5.18;4.65;;;5.20;99.90;;;;;;5054059;28;20249;-75
2023/12/22 06:37:07;;;;;;;4.68;4.28;;;5.00;99.90;;;;;;5056937;28;20218;-77
2023/12/22 06:39:35;;;;;;;5.15;4.75;;;4.90;99.90;;;;;;5058804;28;20244;-76
2023/12/22 06:42:05;;;;;;;4.63;4.22;;;4.80;99.90;;;;;;5056822;28;20202;-76
2023/12/22 06:44:32;;;;;;;4.70;4.30;;;5.00;99.90;;;;;;5055863;28;20222;-76
2023/12/22 06:46:59;;;;;;;4.82;4.43;;;5.30;99.90;;;;;;5062534;28;20313;-75
2023/12/22 06:49:26;;;;;;;4.22;3.92;;;5.70;99.90;;;;;;5057843;28;20227;-76
2023/12/22 06:51:53;;;;;;;3.92;3.63;;;5.90;99.90;;;;;;5058609;28;20857;-76
2023/12/22 06:54:20;;;;;;;4.07;3.78;;;5.80;99.90;;;;;;5055215;28;20727;-77
2023/12/22 06:56:49;;;;;;;3.97;3.67;;;5.80;99.90;;;;;;5061847;28;20224;-77
2023/12/22 06:59:16;;;;;;;3.78;3.47;;;5.70;99.90;;;;;;5064991;28;20225;-76
2023/12/22 07:01:43;;;;;;;3.30;3.10;;;5.70;99.90;;;;;;5060191;28;20198;-77
2023/12/22 07:04:10;;;;;;;4.30;3.90;;;5.70;99.90;;;;;;5063747;28;20230;-77
2023/12/22 07:06:38;;;;;;;4.15;3.85;;;5.80;99.90;;;;;;5059609;28;20494;-76
2023/12/22 07:09:31;;;;;;;3.85;3.55;;;5.80;99.90;;;;;;5062575;28;20226;-76
2023/12/22 07:11:59;;;;;;;3.88;3.67;;;5.80;99.90;;;;;;5054379;28;20583;-78
2023/12/22 07:14:26;;;;;;;4.18;3.88;;;5.80;99.90;;;;;;5058625;28;20218;-78
2023/12/22 07:16:53;;;;;;;3.97;3.75;;;5.80;99.90;;;;;;5061617;28;20230;-75
2023/12/22 07:19:20;;;;;;;4.22;3.92;;;5.70;99.90;;;;;;5057057;28;20598;-75
2023/12/22 07:21:46;;;;;;;5.10;4.70;;;5.60;99.90;;;;;;5058427;28;20194;-77
2023/12/22 07:24:13;;;;;;;5.35;4.85;;;5.60;99.90;;;;;;5058609;28;20660;-76
2023/12/22 07:26:40;;;;;;;4.80;4.50;;;5.70;99.90;;;;;;5058822;28;20229;-77
2023/12/22 07:29:09;;;;;;;4.47;4.07;;;5.70;99.90;;;;;;5058078;28;20264;-76
2023/12/22 07:31:36;;;;;;;4.30;3.90;;;5.80;99.90;;;;;;5061783;28;20289;-75
2023/12/22 07:34:03;;;;;;;3.72;3.42;;;5.80;99.90;;;;;;5061588;28;20222;-76
2023/12/22 07:36:30;;;;;;;3.50;3.30;;;5.90;99.90;;;;;;5057522;28;20863;-77
2023/12/22 07:38:59;;;;;;;4.00;3.70;;;5.90;99.90;;;;;;5059699;28;20222;-76
2023/12/22 07:41:26;;;;;;;3.40;3.20;;;6.00;99.90;;;;;;5059279;28;20203;-77
2023/12/22 07:43:53;;;;;;;3.60;3.40;;;6.00;99.90;;;;;;5061501;28;20283;-77
2023/12/22 07:46:22;;;;;;;6.05;5.32;;;6.00;99.90;;;;;;5065507;28;20202;-77
2023/12/22 07:48:49;;;;;;;5.45;4.95;;;5.80;99.90;;;;;;5063620;28;20314;-78
2023/12/22 07:51:16;;;;;;;6.47;5.25;;;5.50;99.90;;;;;;5067032;28;20198;-77
2023/12/22 07:53:44;;;;;;;5.15;4.70;;;5.30;99.90;;;;;;5067949;28;20226;-77
2023/12/22 07:56:12;;;;;;;4.47;4.18;;;5.20;99.90;;;;;;5063572;28;20235;-78
2023/12/22 07:58:39;;;;;;;4.47;4.18;;;5.20;99.90;;;;;;5069110;28;20654;-78
2023/12/22 08:01:06;;;;;;;4.10;3.80;;;5.40;99.90;;;;;;5065632;28;20209;-77
2023/12/22 08:03:35;;;;;;;4.15;3.85;;;5.50;99.90;;;;;;5069146;28;20730;-76
2023/12/22 08:06:02;;;;;;;4.15;3.85;;;5.70;99.90;;;;;;5066381;28;20577;-77
2023/12/22 08:08:29;;;;;;;5.13;4.72;;;5.80;99.90;;;;;;5067412;28;20233;-76
2023/12/22 08:10:56;;;;;;;5.03;4.63;;;6.00;99.90;;;;;;5063549;28;20206;-77
2023/12/22 08:13:23;;;;;;;5.40;4.90;;;6.00;99.90;;;;;;5058462;28;20270;-76
2023/12/22 08:15:50;;;;;;;4.85;4.45;;;6.10;99.90;;;;;;5055333;28;20207;-75
2023/12/22 08:18:17;;;;;;;4.40;4.10;;;6.20;99.90;;;;;;5054209;28;20221;-75
2023/12/22 08:20:49;;;;;;;4.47;4.18;;;6.20;99.90;;;;;;5056595;28;20209;-75
2023/12/22 08:23:16;;;;;;;4.95;4.63;;;6.30;99.90;;;;;;5051380;28;20234;-76
2023/12/22 08:25:43;;;;;;;4.25;3.95;;;6.30;99.90;;;;;;5055126;28;20677;-73
2023/12/22 08:28:12;;;;;;;3.92;3.65;;;6.30;99.90;;;;;;5053381;28;20501;-75
2023/12/22 08:30:39;;;;;;;4.20;3.90;;;6.30;99.90;;;;;;5055152;28;20271;-76
2023/12/22 08:33:06;;;;;;;4.53;4.18;;;6.30;99.90;;;;;;5053283;28;20226;-76
2023/12/22 08:35:33;;;;;;;3.85;3.58;;;6.30;99.90;;;;;;5054092;28;20213;-76
2023/12/22 08:38:02;;;;;;;3.83;3.42;;;6.30;99.90;;;;;;5054462;28;20457;-75
2023/12/22 08:40:29;;;;;;;3.92;3.63;;;6.30;99.90;;;;;;5054267;28;20262;-77
2023/12/22 08:42:59;;;;;;;3.80;3.60;;;6.30;99.90;;;;;;5053900;28;20586;-76
2023/12/22 08:45:28;;;;;;;4.28;3.97;;;6.30;99.90;;;;;;5055440;28;20198;-75
2023/12/22 08:47:56;;;;;;;3.38;3.17;;;6.20;99.90;;;;;;5056261;28;20222;-75
2023/12/22 08:50:23;;;;;;;3.53;3.33;;;6.20;99.90;;;;;;5053065;28;20309;-76
2023/12/22 08:52:50;;;;;;;4.82;4.35;;;6.40;99.90;;;;;;5053743;28;20222;-76
2023/12/22 08:55:18;;;;;;;5.40;5.00;;;6.30;99.90;;;;;;5055726;28;20190;-75
2023/12/22 08:57:45;;;;;;;5.32;4.90;;;6.20;99.90;;;;;;5053483;28;20315;-76
2023/12/22 09:00:13;;;;;;;4.78;4.38;;;6.20;99.90;;;;;;5052319;28;20890;-75
2023/12/22 09:02:42;;;;;;;6.57;4.68;;;6.20;99.90;;;;;;5052889;28;20664;-75
2023/12/22 09:05:09;;;;;;;4.38;4.07;;;6.30;99.90;;;;;;5054396;28;20202;-75
2023/12/22 09:07:36;;;;;;;7.13;6.53;;;6.40;99.90;;;;;;5050504;28;20362;-76
2023/12/22 09:10:04;;;;;;;6.18;5.68;;;6.50;99.90;;;;;;5053363;28;21024;-75
2023/12/22 09:12:32;;;;;;;4.90;4.50;;;6.50;99.90;;;;;;5051036;28;20256;-74
2023/12/22 09:14:59;;;;;;;5.47;4.97;;;6.50;99.90;;;;;;5054363;28;20202;-76
2023/12/22 09:17:28;;;;;;;4.65;4.25;;;6.50;99.90;;;;;;5056309;28;20218;-75
2023/12/22 09:19:55;;;;;;;4.63;4.22;;;6.60;99.90;;;;;;5051366;28;20297;-75
2023/12/22 09:22:23;;;;;;;5.03;4.60;;;6.60;99.90;;;;;;5051823;28;20282;-75
2023/12/22 09:24:50;;;;;;;5.60;5.10;;;6.60;99.90;;;;;;5053965;28;20229;-76
2023/12/22 09:27:17;;;;;;;5.68;5.18;;;6.60;99.90;;;;;;5053647;28;20215;-75
2023/12/22 09:29:45;;;;;;;4.90;4.50;;;6.60;99.90;;;;;;5052700;28;20222;-75
2023/12/22 09:32:12;;;;;;;4.50;4.20;;;6.60;99.90;;;;;;5053333;28;20326;-76
2023/12/22 09:34:40;;;;;;;4.00;3.70;;;6.70;99.90;;;;;;5051940;28;20234;-76
2023/12/22 09:37:07;;;;;;;3.92;3.63;;;6.80;99.90;;;;;;5053433;28;20221;-76
2023/12/22 09:39:34;;;;;;;3.90;3.60;;;6.90;99.90;;;;;;5054623;28;20233;-76
2023/12/22 09:42:01;;;;;;;3.88;3.60;;;7.00;99.90;;;;;;5052722;28;20199;-76
2023/12/22 09:44:33;;;;;;;3.65;3.45;;;7.10;99.90;;;;;;5054780;28;20798;-76
2023/12/22 09:47:05;;;;;;;4.47;3.25;;;7.20;99.90;;;;;;5053991;28;20223;-77
2023/12/22 09:49:33;;;;;;;3.83;3.53;;;7.30;99.90;;;;;;5053533;28;20222;-77
2023/12/22 09:52:02;;;;;;;3.85;3.55;;;7.50;99.90;;;;;;5054404;28;20210;-77
2023/12/22 09:54:31;;;;;;;3.95;3.40;;;7.60;99.90;;;;;;5055556;28;20226;-74
2023/12/22 09:56:58;;;;;;;3.78;3.47;;;7.70;99.90;;;;;;5051594;28;20234;-76
2023/12/22 09:59:27;;;;;;;3.20;3.00;;;7.90;99.90;;;;;;5053314;28;20206;-75
2023/12/22 10:01:56;;;;;;;3.95;3.55;;;8.00;99.90;;;;;;5051539;28;20202;-75
2023/12/22 10:04:25;;;;;;;3.45;3.25;;;8.10;99.90;;;;;;5053509;28;20646;-75
2023/12/22 10:06:54;;;;;;;4.22;3.92;;;8.10;99.90;;;;;;5050737;28;20213;-76
2023/12/22 10:09:22;;;;;;;5.22;4.50;;;8.20;99.90;;;;;;5051857;28;20229;-76
2023/12/22 10:11:53;;;;;;;3.80;3.50;;;8.40;99.90;;;;;;5051465;28;20193;-77
2023/12/22 10:14:22;;;;;;;3.92;3.63;;;8.60;99.90;;;;;;5054560;28;20222;-75
2023/12/22 10:16:50;;;;;;;4.18;3.78;;;8.80;99.90;;;;;;5054485;28;20780;-76
2023/12/22 10:19:17;;;;;;;3.40;3.10;;;9.10;99.90;;;;;;5051760;28;21045;-75
2023/12/22 10:21:46;;;;;;;4.05;3.60;;;9.30;99.90;;;;;;5054385;28;21276;-77
2023/12/22 10:24:37;;;;;;;4.53;4.13;;;9.40;99.90;;;;;;5050749;28;20222;-75
2023/12/22 10:27:05;;;;;;;4.80;4.40;;;9.40;99.90;;;;;;5053333;28;20225;-75
2023/12/22 10:29:32;;;;;;;5.70;5.10;;;9.60;99.90;;;;;;5056027;28;20221;-77
2023/12/22 10:32:01;;;;;;;5.20;4.75;;;9.90;99.90;;;;;;5055498;28;20200;-76
2023/12/22 10:34:28;;;;;;;6.05;5.25;;;10.20;99.90;;;;;;5056795;28;20525;-76
2023/12/22 10:36:56;;;;;;;5.78;5.05;;;10.50;99.90;;;;;;5061697;28;20226;-76
2023/12/22 10:39:23;;;;;;;6.85;5.47;;;10.80;99.90;;;;;;5059067;28;20873;-75
2023/12/22 10:41:51;;;;;;;4.47;4.07;;;11.10;99.90;;;;;;5056456;28;20202;-76
2023/12/22 10:44:19;;;;;;;6.60;5.10;;;11.30;99.90;;;;;;5057863;28;20218;-75
2023/12/22 10:46:48;;;;;;;4.47;4.07;;;11.40;99.90;;;;;;5057865;28;20252;-76
2023/12/22 10:49:16;;;;;;;4.88;4.47;;;11.50;99.90;;;;;;5052648;28;20225;-76
2023/12/22 10:51:43;;;;;;;4.50;4.10;;;11.80;99.90;;;;;;5059417;28;20293;-74
2023/12/22 10:54:12;;;;;;;3.88;3.58;;;12.00;99.90;;;;;;5057815;28;20233;-74
2023/12/22 10:56:40;;;;;;;3.67;3.38;;;12.30;99.90;;;;;;5054174;28;20851;-75
2023/12/22 10:59:08;;;;;;;4.03;3.72;;;12.40;99.90;;;;;;5055954;28;20226;-76
2023/12/22 11:01:38;;;;;;;5.80;3.70;;;12.60;99.90;;;;;;5055579;28;20194;-74
2023/12/22 11:04:07;;;;;;;4.78;3.85;;;12.50;99.90;;;;;;5056388;28;20226;-74
2023/12/22 11:06:36;;;;;;;3.78;3.45;;;12.40;99.90;;;;;;5059277;28;20330;-75
2023/12/22 11:09:08;;;;;;;4.22;3.83;;;12.60;99.90;;;;;;5056772;28;20269;-77
2023/12/22 11:11:38;;;;;;;4.10;3.65;;;12.70;99.90;;;;;;5056536;28;20201;-75
2023/12/22 11:14:06;;;;;;;4.32;3.78;;;12.80;99.90;;;;;;5054935;28;21866;-74
2023/12/22 11:16:34;;;;;;;3.55;3.25;;;13.20;99.90;;;;;;5056828;28;20253;-77
2023/12/22 11:19:02;;;;;;;4.05;3.75;;;13.30;99.90;;;;;;5058129;28;20305;-75
2023/12/22 11:21:30;;;;;;;3.95;3.55;;;13.30;99.90;;;;;;5057687;28;20213;-76
2023/12/22 11:23:58;;;;;;;6.25;3.70;;;13.50;99.90;;;;;;5052580;28;20218;-76
2023/12/22 11:26:26;;;;;;;5.10;3.65;;;13.90;99.90;;;;;;5055957;28;20198;-76
2023/12/22 11:28:54;;;;;;;5.45;2.90;;;14.30;99.90;;;;;;5051051;28;20950;-76
2023/12/22 11:31:21;;;;;;;3.05;2.85;;;14.30;99.90;;;;;;5054938;28;20195;-75
2023/12/22 11:33:49;;;;;;;3.65;2.80;;;14.20;99.90;;;;;;5054342;28;20262;-77
2023/12/22 11:36:18;;;;;;;3.00;2.80;;;14.10;99.90;;;;;;5059266;28;20590;-77
2023/12/22 11:38:46;;;;;;;2.83;2.40;;;14.30;99.90;;;;;;5057969;28;20308;-76
2023/12/22 11:41:18;;;;;;;3.05;2.85;;;14.60;99.90;;;;;;5056526;28;20205;-75
2023/12/22 11:43:46;;;;;;;2.15;2.05;;;14.70;99.90;;;;;;5055081;28;20234;-77
2023/12/22 11:46:18;;;;;;;2.90;2.63;;;14.80;99.90;;;;;;5056429;28;20289;-77
2023/12/22 11:48:49;;;;;;;3.70;2.63;;;14.90;99.90;;;;;;5053956;28;20619;-76
2023/12/22 11:51:17;;;;;;;3.30;2.35;;;14.90;99.90;;;;;;5053686;28;20206;-76
2023/12/22 11:53:45;;;;;;;2.50;2.30;;;14.80;99.90;;;;;;5058575;28;20225;-76
2023/12/22 11:56:13;;;;;;;2.58;2.38;;;14.80;99.90;;;;;;5056194;28;20213;-76
2023/12/22 11:58:41;;;;;;;2.78;2.58;;;14.40;99.90;;;;;;5053455;28;20225;-76
2023/12/22 12:01:10;;;;;;;2.35;2.25;;;14.20;99.90;;;;;;5054385;28;20191;-75
2023/12/22 12:03:51;;;;;;;2.03;1.83;;;14.10;99.90;;;;;;5054873;28;20230;-77
2023/12/22 12:06:31;;;;;;;1.80;1.70;;;13.90;99.90;;;;;;5061442;28;20194;-77
2023/12/22 12:09:01;;;;;;;1.95;1.85;;;13.50;99.90;;;;;;5058434;28;20217;-75
2023/12/22 12:12:12;;;;;;;1.88;1.77;;;13.30;99.90;;;;;;5052119;28;20203;-76
2023/12/22 12:14:45;;;;;;;2.00;1.80;;;13.00;99.90;;;;;;5051996;28;20249;-76
2023/12/22 12:17:12;;;;;;;2.42;2.22;;;13.10;99.90;;;;;;5055187;28;20370;-77
2023/12/22 12:19:41;;;;;;;2.70;1.80;;;12.80;99.90;;;;;;5050126;28;20968;-76
2023/12/22 12:22:09;;;;;;;1.77;1.58;;;12.70;99.90;;;;;;5054789;28;20206;-77
2023/12/22 12:24:38;;;;;;;1.75;1.65;;;12.60;99.90;;;;;;5052800;28;20283;-76
2023/12/22 12:27:05;;;;;;;1.80;1.70;;;12.50;99.90;;;;;;5051653;28;20225;-77
2023/12/22 12:29:34;;;;;;;1.98;1.80;;;12.50;99.90;;;;;;5054526;28;20241;-77
2023/12/22 12:32:05;;;;;;;3.08;1.70;;;12.60;99.90;;;;;;5051913;28;20285;-76
2023/12/22 12:34:32;;;;;;;2.17;1.92;;;12.60;99.90;;;;;;5055702;28;20317;-76
2023/12/22 12:37:03;;;;;;;1.70;1.60;;;12.70;99.90;;;;;;5054098;28;20218;-76
2023/12/22 12:39:32;;;;;;;1.70;1.60;;;12.80;99.90;;;;;;5054586;28;20704;-77
2023/12/22 12:42:01;;;;;;;1.83;1.73;;;12.70;99.90;;;;;;5050338;28;20202;-75
2023/12/22 12:44:32;;;;;;;1.88;1.77;;;12.50;99.90;;;;;;5056151;28;20217;-75
2023/12/22 12:47:00;;;;;;;2.10;2.00;;;12.30;99.90;;;;;;5055046;28;20221;-76
2023/12/22 12:49:30;;;;;;;2.47;2.28;;;12.20;99.90;;;;;;5051856;28;20218;-77
2023/12/22 12:51:58;;;;;;;2.80;2.60;;;12.40;99.90;;;;;;5052158;28;20194;-76
2023/12/22 12:54:27;;;;;;;2.13;2.03;;;12.50;99.90;;;;;;5053165;28;20593;-77
2023/12/22 12:56:54;;;;;;;2.35;2.00;;;12.60;99.90;;;;;;5054805;28;20218;-78
2023/12/22 12:59:21;;;;;;;2.03;1.90;;;12.80;99.90;;;;;;5053632;28;20610;-77